Time;durP1;ratioP1;P1;durP2;ratioP2;P2;SDS_P1;SDS_P2;PMS_P1;PMS_P2;Temp;Humidity;BMP_temperature;BMP_pressure;BME280_temperature;BME280_humidity;BME280_pressure;Samples;Min_cycle;Max_cycle;Signal;HPM_P1;HPM_P2
2023/12/27 00:01:03;;;;;;;4.20;2.60;;;;;;;8.86;63.14;99603.19;5108244;28;20239;-72
2023/12/27 00:03:30;;;;;;;3.58;2.58;;;;;;;8.84;63.30;99591.84;5110016;28;20047;-71
2023/12/27 00:05:56;;;;;;;3.58;2.17;;;;;;;8.84;63.14;99602.41;5109405;28;20305;-71
2023/12/27 00:08:24;;;;;;;3.72;2.70;;;;;;;8.85;63.18;99606.75;5109805;28;20047;-72
2023/12/27 00:10:51;;;;;;;5.10;3.10;;;;;;;8.83;63.53;99616.53;5109237;28;20060;-72
2023/12/27 00:13:17;;;;;;;4.88;2.97;;;;;;;8.80;63.48;99614.03;5109605;28;20203;-71
2023/12/27 00:15:45;;;;;;;3.88;2.97;;;;;;;8.79;63.31;99613.19;5109227;28;20296;-72
2023/12/27 00:18:11;;;;;;;3.75;2.45;;;;;;;8.83;63.10;99621.84;5109680;28;20180;-71
2023/12/27 00:20:38;;;;;;;5.30;2.47;;;;;;;8.89;62.88;99626.84;5109142;28;20233;-71
2023/12/27 00:23:05;;;;;;;3.58;2.45;;;;;;;8.87;62.59;99631.34;5109939;28;20051;-71
2023/12/27 00:25:33;;;;;;;3.65;2.20;;;;;;;8.87;62.94;99636.63;5109323;28;20085;-71
2023/12/27 00:27:59;;;;;;;3.95;2.33;;;;;;;8.87;62.37;99626.06;5108983;28;20040;-72
2023/12/27 00:30:26;;;;;;;3.40;2.40;;;;;;;8.91;62.17;99632.94;5109245;28;20040;-71
2023/12/27 00:32:52;;;;;;;3.53;2.47;;;;;;;8.70;62.10;99608.28;5109253;28;20096;-71
2023/12/27 00:35:19;;;;;;;3.55;2.25;;;;;;;8.88;62.11;99638.34;5108887;28;20242;-71
2023/12/27 00:37:46;;;;;;;4.50;2.65;;;;;;;8.85;62.10;99641.97;5109119;28;20048;-71
2023/12/27 00:40:13;;;;;;;3.40;2.40;;;;;;;8.87;61.84;99645.41;5108802;28;20040;-72
2023/12/27 00:42:41;;;;;;;5.75;2.78;;;;;;;8.62;61.67;99613.91;5108783;28;20044;-71
2023/12/27 00:45:09;;;;;;;3.15;2.10;;;;;;;8.89;61.71;99653.28;5108686;28;20094;-71
2023/12/27 00:47:35;;;;;;;3.50;2.30;;;;;;;8.88;61.74;99656.84;5108895;28;20303;-72
2023/12/27 00:50:02;;;;;;;4.13;2.65;;;;;;;8.90;61.59;99649.72;5109190;28;20085;-71
2023/12/27 00:52:29;;;;;;;3.88;2.38;;;;;;;8.86;61.54;99653.41;5108781;28;20048;-71
2023/12/27 00:54:55;;;;;;;3.83;2.55;;;;;;;8.88;61.43;99652.41;5108591;28;20085;-71
2023/12/27 00:57:22;;;;;;;4.20;2.60;;;;;;;8.33;61.26;99554.41;5108977;28;20085;-71
2023/12/27 00:59:50;;;;;;;3.42;2.47;;;;;;;8.68;61.11;99618.94;5108739;28;20101;-71
2023/12/27 01:02:16;;;;;;;3.78;2.35;;;;;;;8.91;61.23;99669.94;5108664;28;20055;-71
2023/12/27 01:04:43;;;;;;;4.65;2.40;;;;;;;8.92;61.31;99664.56;5108282;28;20044;-71
2023/12/27 01:07:10;;;;;;;3.30;2.20;;;;;;;8.93;61.45;99670.72;5108538;28;20044;-71
2023/12/27 01:09:37;;;;;;;3.72;2.58;;;;;;;8.92;61.61;99682.22;5107396;28;20059;-71
2023/12/27 01:12:04;;;;;;;3.20;2.47;;;;;;;8.93;61.78;99682.16;5107464;28;20047;-71
2023/12/27 01:14:31;;;;;;;5.63;2.20;;;;;;;8.96;61.53;99692.59;5108644;28;20044;-71
2023/12/27 01:16:58;;;;;;;3.38;2.60;;;;;;;8.79;61.78;99666.03;5108308;28;20044;-72
2023/12/27 01:19:25;;;;;;;3.28;2.35;;;;;;;8.94;62.06;99698.88;5108570;28;20069;-71
2023/12/27 01:21:52;;;;;;;3.72;2.67;;;;;;;8.93;62.31;99697.16;5107999;28;20177;-72
2023/12/27 01:24:18;;;;;;;3.35;2.42;;;;;;;7.35;61.85;99430.13;5107934;28;20043;-72
2023/12/27 01:26:45;;;;;;;4.18;2.50;;;;;;;8.95;62.15;99700.59;5108162;28;20052;-71
2023/12/27 01:29:12;;;;;;;3.80;2.47;;;;;;;8.93;62.08;99700.66;5108360;28;20086;-72
2023/12/27 01:31:38;;;;;;;3.63;2.85;;;;;;;8.96;61.92;99703.16;5108094;28;20074;-71
2023/12/27 01:34:06;;;;;;;3.80;2.40;;;;;;;8.94;62.01;99701.53;5108080;28;20043;-72
2023/12/27 01:36:33;;;;;;;3.45;2.58;;;;;;;8.93;61.99;99711.22;5107949;28;20044;-72
2023/12/27 01:39:00;;;;;;;3.58;2.72;;;;;;;8.95;62.02;99714.66;5107866;28;20090;-72
2023/12/27 01:41:26;;;;;;;5.55;3.08;;;;;;;8.95;62.21;99717.31;5107883;28;20251;-72
2023/12/27 01:43:53;;;;;;;5.05;2.67;;;;;;;8.95;62.14;99714.66;5108390;28;20044;-72
2023/12/27 01:46:20;;;;;;;5.40;3.15;;;;;;;8.74;62.38;99683.00;5106679;28;20036;-71
2023/12/27 01:48:46;;;;;;;8.38;2.92;;;;;;;8.95;62.26;99714.66;5107678;28;20048;-72
2023/12/27 01:51:14;;;;;;;3.20;2.55;;;;;;;8.95;62.05;99721.75;5107973;28;20044;-72
2023/12/27 01:53:41;;;;;;;4.93;2.67;;;;;;;8.95;62.17;99727.03;5107314;28;20048;-72
2023/12/27 01:56:09;;;;;;;4.47;2.40;;;;;;;8.96;62.04;99718.16;5107918;28;20047;-71
2023/12/27 01:58:37;;;;;;;5.72;3.03;;;;;;;8.97;62.03;99717.25;5107549;28;20086;-71
2023/12/27 02:01:03;;;;;;;3.72;2.15;;;;;;;8.95;62.16;99724.38;5107515;28;20043;-72
2023/12/27 02:03:30;;;;;;;3.65;2.40;;;;;;;8.94;61.92;99717.38;5107187;28;20093;-72
2023/12/27 02:05:58;;;;;;;3.83;2.30;;;;;;;8.98;61.61;99711.03;5107140;28;20039;-71
2023/12/27 02:08:27;;;;;;;3.38;2.83;;;;;;;8.94;61.62;99718.25;5106973;28;20242;-70
2023/12/27 02:10:54;;;;;;;6.97;3.47;;;;;;;8.95;61.38;99705.88;5106859;28;20233;-71
2023/12/27 02:13:20;;;;;;;3.53;2.45;;;;;;;8.94;61.45;99712.09;5107287;28;20043;-72
2023/12/27 02:15:47;;;;;;;3.83;2.63;;;;;;;8.94;61.27;99707.66;5107258;28;20064;-71
2023/12/27 02:18:15;;;;;;;3.72;2.67;;;;;;;8.91;61.19;99712.22;5107187;28;20040;-71
2023/12/27 02:20:42;;;;;;;4.50;3.13;;;;;;;8.85;60.88;99715.13;5107168;28;20044;-71
2023/12/27 02:23:12;;;;;;;3.45;2.55;;;;;;;8.86;60.84;99716.84;5106996;28;20040;-71
2023/12/27 02:25:41;;;;;;;3.83;2.50;;;;;;;5.57;60.38;99164.19;5107060;28;20052;-71
2023/12/27 02:28:08;;;;;;;4.05;2.63;;;;;;;8.84;60.67;99708.13;5106675;28;20040;-71
2023/12/27 02:30:36;;;;;;;3.92;2.75;;;;;;;8.84;60.62;99713.41;5106672;28;20040;-71
2023/12/27 02:33:03;;;;;;;4.05;2.33;;;;;;;8.84;60.23;99716.91;5106935;28;20063;-72
2023/12/27 02:35:29;;;;;;;3.85;2.60;;;;;;;8.84;60.46;99718.69;5106896;28;20318;-71
2023/12/27 02:37:56;;;;;;;4.93;2.50;;;;;;;8.82;60.44;99717.91;5107095;28;20044;-71
2023/12/27 02:40:23;;;;;;;4.50;2.97;;;;;;;8.83;60.47;99719.63;5106637;28;20052;-71
2023/12/27 02:42:51;;;;;;;4.30;2.50;;;;;;;8.84;60.71;99719.56;5107241;28;20189;-72
2023/12/27 02:45:18;;;;;;;3.15;2.35;;;;;;;8.81;60.38;99716.19;5106616;28;20044;-72
2023/12/27 02:47:44;;;;;;;3.63;2.65;;;;;;;8.82;60.51;99717.91;5106868;28;20048;-72
2023/12/27 02:50:11;;;;;;;4.18;2.42;;;;;;;8.83;60.67;99711.69;5106556;28;20346;-71
2023/12/27 02:52:37;;;;;;;3.97;2.35;;;;;;;8.84;60.62;99713.41;5106586;28;20043;-71
2023/12/27 02:55:05;;;;;;;4.32;2.40;;;;;;;8.83;60.60;99723.13;5106264;28;20358;-71
2023/12/27 02:57:31;;;;;;;4.95;2.42;;;;;;;8.80;60.66;99719.75;5106539;28;20230;-70
2023/12/27 03:00:00;;;;;;;7.72;2.80;;;;;;;8.63;60.78;99700.19;5106494;28;20040;-70
2023/12/27 03:02:26;;;;;;;4.63;3.20;;;;;;;8.79;61.05;99716.25;5106449;28;20051;-71
2023/12/27 03:04:53;;;;;;;3.10;2.10;;;;;;;8.79;61.06;99724.19;5106368;28;20036;-71
2023/12/27 03:07:19;;;;;;;3.22;2.22;;;;;;;8.11;60.81;99597.63;5106324;28;20044;-71
2023/12/27 03:09:46;;;;;;;3.05;2.22;;;;;;;8.84;61.04;99724.84;5105921;28;20056;-71
2023/12/27 03:12:12;;;;;;;4.15;2.22;;;;;;;8.87;60.74;99729.13;5106062;28;20040;-71
2023/12/27 03:14:39;;;;;;;3.63;2.45;;;;;;;8.87;60.90;99723.84;5106219;28;20044;-71
2023/12/27 03:17:07;;;;;;;7.32;3.05;;;;;;;8.83;60.93;99732.84;5106213;28;20055;-72
2023/12/27 03:19:34;;;;;;;4.10;2.28;;;;;;;8.81;60.93;99730.25;5106416;28;20085;-71
2023/12/27 03:22:01;;;;;;;6.90;2.60;;;;;;;8.79;60.78;99747.09;5106455;28;20101;-70
2023/12/27 03:24:27;;;;;;;4.70;2.60;;;;;;;8.80;60.71;99743.53;5106114;28;20212;-71
2023/12/27 03:26:54;;;;;;;3.70;2.08;;;;;;;8.81;60.43;99740.81;5106066;28;20066;-71
2023/12/27 03:29:21;;;;;;;4.53;2.10;;;;;;;8.82;60.51;99742.53;5105984;28;20100;-71
2023/12/27 03:31:47;;;;;;;4.22;2.30;;;;;;;8.82;60.45;99742.53;5106014;28;20062;-70
2023/12/27 03:34:15;;;;;;;3.53;2.38;;;;;;;8.84;60.44;99747.78;5105736;28;20101;-72
2023/12/27 03:36:42;;;;;;;4.38;2.38;;;;;;;8.78;60.24;99740.97;5105972;28;20044;-71
2023/12/27 03:39:08;;;;;;;3.13;2.08;;;;;;;8.78;60.27;99735.66;5105955;28;20089;-71
2023/12/27 03:41:35;;;;;;;4.97;2.50;;;;;;;8.78;60.09;99735.66;5106216;28;20070;-70
2023/12/27 03:44:02;;;;;;;3.50;2.20;;;;;;;8.76;59.16;99747.22;5105878;28;20044;-71
2023/12/27 03:46:28;;;;;;;6.50;2.53;;;;;;;8.78;59.08;99734.81;5106139;28;20089;-71
2023/12/27 03:48:55;;;;;;;4.32;2.35;;;;;;;8.79;59.15;99745.31;5106331;28;20289;-71
2023/12/27 03:51:23;;;;;;;3.65;2.30;;;;;;;8.79;58.99;99747.09;5105803;28;20036;-71
2023/12/27 03:53:50;;;;;;;5.38;2.55;;;;;;;8.77;58.95;99744.53;5106042;28;20056;-71
2023/12/27 03:56:17;;;;;;;3.33;2.40;;;;;;;8.78;58.77;99761.25;5105774;28;20217;-71
2023/12/27 03:58:44;;;;;;;3.72;2.05;;;;;;;8.73;58.57;99758.78;5105765;28;20036;-71
2023/12/27 04:01:11;;;;;;;3.95;2.78;;;;;;;8.73;58.36;99757.94;5105688;28;20063;-70
2023/12/27 04:03:37;;;;;;;4.95;2.50;;;;;;;8.72;57.95;99757.06;5105718;28;20044;-70
2023/12/27 04:06:04;;;;;;;5.28;2.55;;;;;;;8.50;58.08;99737.72;5105996;28;20234;-71
2023/12/27 04:08:33;;;;;;;3.58;2.05;;;;;;;8.68;57.83;99766.91;5105594;28;20349;-71
2023/12/27 04:10:59;;;;;;;3.65;2.40;;;;;;;8.67;58.07;99773.09;5105224;28;20094;-71
2023/12/27 04:13:26;;;;;;;4.90;2.53;;;;;;;8.67;57.91;99775.75;5105663;28;20103;-71
2023/12/27 04:15:52;;;;;;;3.78;2.13;;;;;;;8.70;57.79;99787.13;5105957;28;20372;-71
2023/12/27 04:18:19;;;;;;;3.13;2.17;;;;;;;8.69;57.51;99780.97;5106409;28;20180;-71
2023/12/27 04:20:45;;;;;;;4.68;2.67;;;;;;;8.71;57.67;99784.41;5105582;28;20044;-71
2023/12/27 04:23:12;;;;;;;4.80;2.47;;;;;;;8.67;57.14;99781.03;5105263;28;20052;-71
2023/12/27 04:25:40;;;;;;;7.18;2.33;;;;;;;8.66;57.55;99784.59;5105251;28;20093;-71
2023/12/27 04:28:07;;;;;;;3.28;2.00;;;;;;;8.45;57.46;99748.47;5105426;28;20040;-71
2023/12/27 04:30:33;;;;;;;3.53;2.20;;;;;;;8.72;57.48;99791.41;5104914;28;20052;-70
2023/12/27 04:33:00;;;;;;;3.13;1.95;;;;;;;8.71;57.23;99788.84;5106246;28;20192;-71
2023/12/27 04:35:27;;;;;;;3.80;2.35;;;;;;;8.67;57.38;99796.88;5105441;28;20055;-71
2023/12/27 04:37:53;;;;;;;3.22;2.28;;;;;;;8.67;57.37;99786.31;5105112;28;20358;-71
2023/12/27 04:40:20;;;;;;;4.82;2.58;;;;;;;8.70;57.39;99789.75;5105388;28;20040;-71
2023/12/27 04:42:48;;;;;;;4.18;2.38;;;;;;;8.71;57.33;99791.47;5105066;28;20330;-71
2023/12/27 04:45:14;;;;;;;3.15;2.17;;;;;;;8.70;57.43;99787.97;5105248;28;20051;-71
2023/12/27 04:47:41;;;;;;;3.63;2.30;;;;;;;8.67;57.52;99785.47;5106701;28;20044;-70
2023/12/27 04:50:09;;;;;;;3.25;2.20;;;;;;;8.71;57.57;99792.34;5108844;28;20050;-71
2023/12/27 04:52:35;;;;;;;3.38;2.33;;;;;;;8.72;57.61;99788.78;5109176;28;20242;-71
2023/12/27 04:55:02;;;;;;;2.72;1.80;;;;;;;8.66;57.79;99795.16;5109108;28;20051;-70
2023/12/27 04:57:29;;;;;;;3.95;2.22;;;;;;;8.52;57.86;99760.53;5109082;28;20089;-71
2023/12/27 04:59:57;;;;;;;3.72;2.30;;;;;;;8.72;57.73;99794.06;5108491;28;20094;-70
2023/12/27 05:02:23;;;;;;;3.70;2.35;;;;;;;8.71;57.73;99789.69;5108706;28;20196;-70
2023/12/27 05:04:50;;;;;;;3.05;2.08;;;;;;;8.71;57.83;99788.84;5108650;28;20055;-71
2023/12/27 05:07:16;;;;;;;4.80;2.80;;;;;;;8.69;57.78;99788.91;5108340;28;20258;-70
2023/12/27 05:09:43;;;;;;;3.78;2.10;;;;;;;8.71;57.96;99796.75;5108337;28;20109;-71
2023/12/27 05:12:11;;;;;;;3.33;2.20;;;;;;;6.48;57.71;99422.94;5108523;28;20055;-71
2023/12/27 05:14:38;;;;;;;4.47;2.17;;;;;;;8.61;57.60;99793.63;5108781;28;20044;-71
2023/12/27 05:17:06;;;;;;;3.22;2.03;;;;;;;8.66;57.59;99800.44;5108156;28;20085;-71
2023/12/27 05:19:32;;;;;;;3.03;2.13;;;;;;;8.65;57.53;99804.03;5107780;28;20059;-71
2023/12/27 05:21:59;;;;;;;4.85;2.00;;;;;;;8.61;57.31;99798.91;5108317;28;20238;-71
2023/12/27 05:24:26;;;;;;;5.32;3.13;;;;;;;8.60;57.68;99803.34;5108365;28;20090;-69
2023/12/27 05:26:54;;;;;;;16.40;10.43;;;;;;;8.65;58.95;99813.72;5108306;28;20060;-69
2023/12/27 05:29:21;;;;;;;13.40;7.90;;;;;;;8.73;58.74;99810.78;5107747;28;20107;-70
2023/12/27 05:31:47;;;;;;;7.25;4.90;;;;;;;8.68;57.91;99816.25;5107863;28;20048;-69
2023/12/27 05:34:15;;;;;;;6.35;3.92;;;;;;;8.66;57.72;99813.66;5107945;28;20085;-68
2023/12/27 05:36:42;;;;;;;6.03;3.25;;;;;;;8.72;57.75;99816.97;5107983;28;20055;-68
2023/12/27 05:39:10;;;;;;;4.90;2.78;;;;;;;8.70;57.34;99817.03;5108286;28;20089;-71
2023/12/27 05:41:37;;;;;;;4.15;2.20;;;;;;;8.70;56.51;99824.13;5107938;28;20276;-71
2023/12/27 05:44:04;;;;;;;3.47;1.98;;;;;;;8.68;56.53;99830.31;5107526;28;20044;-71
2023/12/27 05:46:33;;;;;;;4.00;2.42;;;;;;;7.80;56.32;99693.00;5107835;28;20078;-71
2023/12/27 05:48:59;;;;;;;3.83;2.33;;;;;;;8.62;56.26;99835.84;5107701;28;20077;-71
2023/12/27 05:51:27;;;;;;;4.20;2.38;;;;;;;8.61;56.33;99846.47;5107654;28;20044;-71
2023/12/27 05:53:54;;;;;;;3.80;2.45;;;;;;;8.58;56.11;99844.81;5107536;28;20047;-71
2023/12/27 05:56:20;;;;;;;4.82;2.00;;;;;;;8.41;56.28;99814.69;5107695;28;20117;-72
2023/12/27 05:58:47;;;;;;;3.67;2.20;;;;;;;7.38;56.16;99646.22;5107403;28;20048;-71
2023/12/27 06:01:14;;;;;;;4.22;2.20;;;;;;;8.64;56.45;99844.56;5107537;28;20097;-71
2023/12/27 06:03:40;;;;;;;4.63;2.35;;;;;;;8.67;56.32;99846.22;5107330;28;20052;-72
2023/12/27 06:06:07;;;;;;;3.85;2.35;;;;;;;8.64;56.06;99849.84;5107197;28;20304;-72
2023/12/27 06:08:35;;;;;;;3.20;2.20;;;;;;;8.44;56.12;99804.00;5107642;28;20051;-72
2023/12/27 06:11:02;;;;;;;4.32;2.30;;;;;;;8.59;55.81;99841.25;5106928;28;20105;-72
2023/12/27 06:13:28;;;;;;;3.95;2.53;;;;;;;8.56;56.15;99838.72;5107327;28;20117;-71
2023/12/27 06:15:55;;;;;;;5.32;2.58;;;;;;;8.58;56.09;99850.09;5106090;28;20284;-72
2023/12/27 06:18:21;;;;;;;4.13;2.10;;;;;;;8.60;56.31;99842.13;5107165;28;20047;-72
2023/12/27 06:20:48;;;;;;;4.20;2.20;;;;;;;8.56;55.89;99841.38;5107139;28;20040;-72
2023/12/27 06:23:15;;;;;;;3.85;2.38;;;;;;;8.52;55.62;99846.84;5107394;28;20094;-72
2023/12/27 06:25:43;;;;;;;3.95;2.00;;;;;;;8.57;55.83;99839.59;5106807;28;20093;-72
2023/12/27 06:28:09;;;;;;;3.40;2.47;;;;;;;8.55;55.66;99837.00;5106866;28;20055;-72
2023/12/27 06:30:36;;;;;;;3.03;2.00;;;;;;;8.36;55.68;99806.94;5107394;28;20039;-72
2023/12/27 06:33:03;;;;;;;3.55;2.60;;;;;;;8.52;55.81;99847.69;5107522;28;20097;-72
2023/12/27 06:35:29;;;;;;;8.65;2.60;;;;;;;8.57;55.83;99844.88;5107387;28;20043;-71
2023/12/27 06:37:56;;;;;;;2.78;2.13;;;;;;;8.56;55.67;99846.66;5107153;28;20039;-72
2023/12/27 06:40:23;;;;;;;4.18;2.70;;;;;;;8.59;55.87;99850.97;5107167;28;20060;-71
2023/12/27 06:42:51;;;;;;;3.55;2.50;;;;;;;8.59;55.80;99859.75;5106665;28;20052;-71
2023/12/27 06:45:17;;;;;;;3.35;2.30;;;;;;;8.56;56.00;99857.22;5107011;28;20044;-71
2023/12/27 06:47:44;;;;;;;3.60;2.10;;;;;;;8.53;55.87;99862.63;5106383;28;20044;-71
2023/12/27 06:50:11;;;;;;;4.82;2.42;;;;;;;8.54;56.04;99858.22;5106519;28;20081;-71
2023/12/27 06:52:37;;;;;;;5.03;2.38;;;;;;;8.53;55.99;99860.00;5106354;28;20046;-71
2023/12/27 06:55:05;;;;;;;3.72;2.47;;;;;;;8.53;56.14;99861.78;5106281;28;20105;-71
2023/12/27 06:57:31;;;;;;;2.97;2.13;;;;;;;7.41;56.19;99669.84;5106501;28;20052;-71
2023/12/27 06:59:59;;;;;;;7.00;2.30;;;;;;;8.51;56.24;99863.59;5105304;28;20346;-71
2023/12/27 07:02:26;;;;;;;3.75;2.67;;;;;;;8.47;56.32;99862.00;5106390;28;20089;-72
2023/12/27 07:04:52;;;;;;;3.95;2.40;;;;;;;8.49;56.35;99868.94;5106373;28;20040;-72
2023/12/27 07:07:19;;;;;;;5.47;2.38;;;;;;;8.51;56.38;99869.75;5106345;28;20097;-73
2023/12/27 07:09:46;;;;;;;3.67;2.20;;;;;;;8.52;56.61;99870.63;5105016;28;20335;-72
2023/12/27 07:12:12;;;;;;;4.78;2.80;;;;;;;8.51;56.67;99882.97;5106260;28;20044;-72
2023/12/27 07:14:39;;;;;;;4.25;2.80;;;;;;;8.52;56.66;99887.31;5106482;28;20288;-72
2023/12/27 07:17:07;;;;;;;4.80;2.42;;;;;;;8.46;57.13;99892.84;5106415;28;20072;-72
2023/12/27 07:19:35;;;;;;;3.95;2.75;;;;;;;8.51;56.93;99906.75;5106473;28;20036;-72
2023/12/27 07:22:02;;;;;;;4.60;2.53;;;;;;;8.50;57.32;99907.66;5105815;28;20051;-72
2023/12/27 07:24:29;;;;;;;4.95;2.50;;;;;;;8.49;57.24;99913.84;5105845;28;20044;-72
2023/12/27 07:26:56;;;;;;;4.65;2.97;;;;;;;8.34;57.15;99882.75;5106057;28;20288;-71
2023/12/27 07:29:22;;;;;;;4.20;2.60;;;;;;;8.34;57.13;99888.03;5105956;28;20044;-72
2023/12/27 07:31:49;;;;;;;4.55;2.75;;;;;;;8.46;57.43;99910.47;5105934;28;20055;-72
2023/12/27 07:34:17;;;;;;;3.88;2.72;;;;;;;8.47;57.44;99920.13;5105698;28;20055;-72
2023/12/27 07:36:44;;;;;;;4.55;2.63;;;;;;;8.43;57.70;99932.56;5105908;28;20040;-72
2023/12/27 07:39:10;;;;;;;4.43;2.55;;;;;;;7.21;57.66;99744.34;5106002;28;20048;-72
2023/12/27 07:41:37;;;;;;;4.07;2.90;;;;;;;8.48;57.55;99941.19;5104998;28;20036;-73
2023/12/27 07:44:04;;;;;;;5.68;2.95;;;;;;;8.50;58.08;99951.72;5105533;28;20047;-72
2023/12/27 07:46:30;;;;;;;4.90;3.22;;;;;;;8.49;57.99;99944.69;5105909;28;20156;-72
2023/12/27 07:48:57;;;;;;;5.22;3.53;;;;;;;8.52;57.95;99948.09;5105779;28;20044;-72
2023/12/27 07:51:25;;;;;;;8.20;3.83;;;;;;;8.51;58.08;99956.06;5105464;28;20040;-72
2023/12/27 07:53:52;;;;;;;6.30;3.22;;;;;;;8.52;58.09;99956.00;5105743;28;20052;-72
2023/12/27 07:56:18;;;;;;;4.38;3.33;;;;;;;8.53;58.14;99968.31;5105709;28;20040;-72
2023/12/27 07:58:45;;;;;;;4.47;2.83;;;;;;;8.53;58.20;99960.38;5105729;28;20109;-72
2023/12/27 08:01:11;;;;;;;4.47;3.25;;;;;;;7.78;58.07;99827.63;5105752;28;20048;-72
2023/12/27 08:03:39;;;;;;;3.53;2.63;;;;;;;8.46;58.14;99936.88;5105744;28;20097;-72
2023/12/27 08:06:07;;;;;;;3.75;2.90;;;;;;;8.59;58.10;99970.72;5105643;28;20042;-71
2023/12/27 08:08:35;;;;;;;5.18;3.00;;;;;;;8.58;58.13;99958.44;5105624;28;20048;-72
2023/12/27 08:11:03;;;;;;;3.42;2.55;;;;;;;8.61;57.97;99968.88;5105061;28;20044;-71
2023/12/27 08:13:30;;;;;;;3.58;2.42;;;;;;;8.60;58.01;99975.09;5105521;28;20103;-72
2023/12/27 08:15:57;;;;;;;4.05;2.65;;;;;;;8.53;57.93;99968.31;5105573;28;20048;-72
2023/12/27 08:18:24;;;;;;;4.40;2.33;;;;;;;8.64;57.86;99979.34;5105814;28;20040;-72
2023/12/27 08:20:51;;;;;;;4.45;2.72;;;;;;;8.64;58.13;99975.84;5105850;28;20036;-72
2023/12/27 08:23:18;;;;;;;4.03;2.83;;;;;;;8.65;57.75;99983.69;5109402;28;20052;-72
2023/12/27 08:25:46;;;;;;;5.45;3.40;;;;;;;8.65;57.89;99983.69;5109636;28;20040;-72
2023/12/27 08:28:14;;;;;;;5.15;3.40;;;;;;;8.68;57.97;99991.50;5108113;28;20093;-72
2023/12/27 08:30:41;;;;;;;4.28;2.95;;;;;;;8.68;58.06;99998.56;5108703;28;20044;-71
2023/12/27 08:33:07;;;;;;;4.72;2.80;;;;;;;8.67;57.58;99997.72;5109141;28;20054;-72
2023/12/27 08:35:35;;;;;;;4.28;3.20;;;;;;;8.71;57.50;100002.88;5109142;28;20055;-72
2023/12/27 08:38:01;;;;;;;5.88;3.35;;;;;;;8.57;57.81;99982.25;5108812;28;20059;-72
2023/12/27 08:40:28;;;;;;;4.95;3.35;;;;;;;8.78;57.64;100009.66;5108971;28;20055;-72
2023/12/27 08:42:57;;;;;;;5.00;3.70;;;;;;;8.81;57.57;100012.19;5108045;28;20065;-72
2023/12/27 08:45:24;;;;;;;4.53;3.50;;;;;;;8.82;57.08;100008.63;5109011;28;20375;-72
2023/12/27 08:47:51;;;;;;;4.28;2.90;;;;;;;8.87;56.97;100004.03;5107804;28;20040;-72
2023/12/27 08:50:17;;;;;;;5.00;2.65;;;;;;;8.88;56.97;100009.25;5108658;28;20036;-73
2023/12/27 08:52:44;;;;;;;5.65;3.03;;;;;;;8.90;56.91;100012.72;5108760;28;20052;-73
2023/12/27 08:55:12;;;;;;;3.70;2.45;;;;;;;8.91;56.75;100019.72;5108697;28;20107;-72
2023/12/27 08:57:39;;;;;;;4.82;2.75;;;;;;;8.97;56.53;100015.97;5108550;28;20295;-72
2023/12/27 09:00:10;;;;;;;4.25;2.53;;;;;;;8.97;56.74;100022.13;5108617;28;20059;-72
2023/12/27 09:02:37;;;;;;;4.35;2.90;;;;;;;9.03;56.89;100021.03;5108623;28;20331;-72
2023/12/27 09:05:04;;;;;;;5.40;2.92;;;;;;;9.00;56.34;100015.88;5108530;28;20061;-72
2023/12/27 09:07:31;;;;;;;4.05;2.83;;;;;;;9.04;56.64;100017.47;5108268;28;20074;-72
2023/12/27 09:09:58;;;;;;;5.38;2.70;;;;;;;9.08;56.58;100023.50;5108062;28;20044;-72
2023/12/27 09:12:25;;;;;;;3.72;2.50;;;;;;;9.12;56.37;100022.47;5108159;28;20308;-73
2023/12/27 09:14:52;;;;;;;4.03;2.40;;;;;;;8.95;56.39;100001.97;5108157;28;20036;-72
2023/12/27 09:17:20;;;;;;;4.97;3.17;;;;;;;9.05;56.86;100019.19;5108238;28;20040;-72
2023/12/27 09:19:47;;;;;;;5.63;4.05;;;;;;;8.98;57.38;100015.94;5108472;28;20089;-72
2023/12/27 09:22:13;;;;;;;7.70;4.78;;;;;;;9.06;57.37;100020.91;5108548;28;20289;-72
2023/12/27 09:24:41;;;;;;;7.07;4.25;;;;;;;8.85;57.17;99988.22;5107938;28;20040;-73
2023/12/27 09:27:08;;;;;;;4.93;3.55;;;;;;;9.05;57.27;100013.91;5107993;28;20281;-72
2023/12/27 09:29:34;;;;;;;4.13;2.83;;;;;;;9.09;57.15;100014.66;5107014;28;20040;-72
2023/12/27 09:32:01;;;;;;;5.63;3.53;;;;;;;9.18;56.95;100009.00;5107007;28;20089;-73
2023/12/27 09:34:29;;;;;;;5.45;3.10;;;;;;;9.23;56.67;100010.59;5107172;28;20052;-73
2023/12/27 09:36:56;;;;;;;4.25;3.42;;;;;;;9.24;56.44;100009.66;5107924;28;20238;-72
2023/12/27 09:39:22;;;;;;;4.90;2.90;;;;;;;9.19;56.03;100011.59;5107635;28;20089;-72
2023/12/27 09:41:49;;;;;;;5.55;3.00;;;;;;;8.51;56.20;99896.16;5107877;28;20238;-73
2023/12/27 09:44:20;;;;;;;4.93;3.42;;;;;;;9.32;56.28;100012.88;5106752;28;20036;-73
2023/12/27 09:46:48;;;;;;;5.50;2.63;;;;;;;9.37;55.82;100011.81;5107660;28;20044;-73
2023/12/27 09:49:15;;;;;;;4.47;2.63;;;;;;;9.35;55.58;100016.31;5106697;28;20055;-72
2023/12/27 09:51:44;;;;;;;3.90;2.40;;;;;;;9.37;55.45;100001.25;5107918;28;20086;-72
2023/12/27 09:54:11;;;;;;;4.40;2.83;;;;;;;9.39;55.78;100004.69;5107450;28;20177;-72
2023/12/27 09:56:38;;;;;;;4.28;2.90;;;;;;;9.43;55.83;99995.72;5107628;28;20105;-73
2023/12/27 09:59:07;;;;;;;3.53;2.78;;;;;;;9.45;55.67;100001.81;5107358;28;20059;-73
2023/12/27 10:01:38;;;;;;;5.20;2.65;;;;;;;9.45;55.45;99996.53;5107789;28;20105;-72
2023/12/27 10:04:10;;;;;;;3.25;2.22;;;;;;;9.44;55.45;99994.81;5106234;28;20062;-72
2023/12/27 10:06:44;;;;;;;3.00;2.15;;;;;;;9.37;55.02;99993.31;5106806;28;20040;-73
2023/12/27 10:09:12;;;;;;;5.78;2.65;;;;;;;9.39;54.90;99997.59;5107490;28;20051;-73
2023/12/27 10:11:42;;;;;;;8.25;5.20;;;;;;;9.34;55.19;99996.94;5106795;28;20039;-73
2023/12/27 10:14:10;;;;;;;13.52;7.43;;;;;;;9.40;55.48;99999.38;5107234;28;20097;-72
2023/12/27 10:16:37;;;;;;;10.93;6.20;;;;;;;9.27;55.53;99961.06;5107145;28;20300;-72
2023/12/27 10:19:04;;;;;;;10.20;5.90;;;;;;;9.50;55.59;99999.84;5107088;28;20058;-73
2023/12/27 10:21:41;;;;;;;10.05;5.50;;;;;;;9.50;55.58;99992.78;5106961;28;20044;-72
2023/12/27 10:24:09;;;;;;;8.43;5.78;;;;;;;9.40;55.52;99991.44;5106701;28;20076;-73
2023/12/27 10:26:36;;;;;;;8.98;5.10;;;;;;;9.10;55.55;99929.13;5106978;28;20066;-73
2023/12/27 10:29:03;;;;;;;7.80;5.13;;;;;;;9.49;55.60;99988.41;5106956;28;20064;-72
2023/12/27 10:31:31;;;;;;;7.18;5.30;;;;;;;9.52;55.50;99985.63;5106893;28;20047;-73
2023/12/27 10:34:02;;;;;;;7.05;4.72;;;;;;;9.54;55.31;99982.94;5106461;28;20044;-73
2023/12/27 10:36:30;;;;;;;8.85;4.93;;;;;;;9.52;55.44;99983.00;5106599;28;20039;-72
2023/12/27 10:39:01;;;;;;;6.60;4.32;;;;;;;9.59;55.39;99967.72;5106719;28;20062;-72
2023/12/27 10:41:32;;;;;;;7.82;4.07;;;;;;;9.59;55.50;99975.66;5106544;28;20070;-73
2023/12/27 10:44:00;;;;;;;8.48;4.60;;;;;;;9.57;55.43;99967.78;5106246;28;20097;-73
2023/12/27 10:46:27;;;;;;;7.03;5.10;;;;;;;9.55;55.14;99963.47;5106274;28;20051;-73
2023/12/27 10:49:00;;;;;;;7.60;4.45;;;;;;;9.60;55.04;99958.88;5106481;28;20060;-73
2023/12/27 10:51:30;;;;;;;7.33;4.20;;;;;;;9.17;54.74;99885.63;5106412;28;20044;-72
2023/12/27 10:54:00;;;;;;;5.97;3.90;;;;;;;9.56;54.67;99952.84;5106417;28;20051;-71
2023/12/27 10:56:29;;;;;;;6.53;4.65;;;;;;;9.61;54.57;99952.66;5106676;28;20052;-72
2023/12/27 10:58:58;;;;;;;7.85;5.00;;;;;;;9.66;54.07;99949.81;5106438;28;20244;-72
2023/12/27 11:01:26;;;;;;;5.22;4.35;;;;;;;9.66;54.26;99942.72;5106042;28;20066;-72
2023/12/27 11:03:54;;;;;;;6.93;4.43;;;;;;;9.26;53.97;99837.69;5106197;28;20056;-72
2023/12/27 11:06:22;;;;;;;7.18;3.83;;;;;;;10.13;53.73;99935.38;5106239;28;20067;-72
2023/12/27 11:08:51;;;;;;;5.03;3.13;;;;;;;10.26;52.94;99915.38;5106092;28;20107;-72
2023/12/27 11:11:21;;;;;;;6.47;3.70;;;;;;;10.42;52.12;99914.66;5105600;28;20051;-72
2023/12/27 11:13:48;;;;;;;5.50;3.00;;;;;;;10.46;51.37;99903.84;5105834;28;20231;-73
2023/12/27 11:16:19;;;;;;;4.43;3.10;;;;;;;10.42;50.97;99875.78;5105753;28;20265;-72
2023/12/27 11:18:47;;;;;;;6.78;3.53;;;;;;;10.86;50.53;99907.34;5105026;28;20123;-72
2023/12/27 11:21:15;;;;;;;5.63;3.05;;;;;;;11.16;50.04;99894.38;5105840;28;20098;-72
2023/12/27 11:23:42;;;;;;;5.85;2.75;;;;;;;11.30;49.19;99888.41;5106029;28;20089;-72
2023/12/27 11:26:09;;;;;;;4.28;2.60;;;;;;;11.43;48.90;99887.72;5106163;28;20223;-73
2023/12/27 11:28:39;;;;;;;5.10;2.45;;;;;;;10.28;48.09;99698.91;5105661;28;20044;-73
2023/12/27 11:31:06;;;;;;;7.03;2.97;;;;;;;11.63;49.07;99884.03;5105857;28;20044;-72
2023/12/27 11:33:35;;;;;;;5.20;4.13;;;;;;;11.71;47.90;99883.66;5105705;28;20078;-73
2023/12/27 11:36:03;;;;;;;6.82;4.28;;;;;;;11.82;47.43;99878.63;5105836;28;20357;-73
2023/12/27 11:38:32;;;;;;;4.97;2.70;;;;;;;11.86;47.02;99873.09;5104663;28;20296;-73